sensor_id;sensor_type;location;lat;lon;timestamp;P1;durP1;ratioP1;P2;durP2;ratioP2
13114;SDS011;6623;52.120;8.660;2023-02-15T00:00:30;13.30;;;9.27;;
13114;SDS011;6623;52.120;8.660;2023-02-15T00:03:02;13.17;;;9.80;;
13114;SDS011;6623;52.120;8.660;2023-02-15T00:05:27;14.70;;;11.00;;
13114;SDS011;6623;52.120;8.660;2023-02-15T00:07:58;13.47;;;10.23;;
13114;SDS011;6623;52.120;8.660;2023-02-15T00:10:42;16.67;;;10.70;;
13114;SDS011;6623;52.120;8.660;2023-02-15T00:13:08;14.80;;;10.40;;
13114;SDS011;6623;52.120;8.660;2023-02-15T00:15:33;15.23;;;11.03;;
13114;SDS011;6623;52.120;8.660;2023-02-15T00:18:02;14.03;;;10.13;;
13114;SDS011;6623;52.120;8.660;2023-02-15T00:20:27;13.37;;;10.47;;
13114;SDS011;6623;52.120;8.660;2023-02-15T00:22:53;13.83;;;10.77;;
13114;SDS011;6623;52.120;8.660;2023-02-15T00:25:18;14.97;;;10.60;;
13114;SDS011;6623;52.120;8.660;2023-02-15T00:27:44;15.63;;;10.97;;
13114;SDS011;6623;52.120;8.660;2023-02-15T00:30:10;13.87;;;10.27;;
13114;SDS011;6623;52.120;8.660;2023-02-15T00:32:35;14.87;;;10.83;;
13114;SDS011;6623;52.120;8.660;2023-02-15T00:35:01;13.67;;;10.57;;
13114;SDS011;6623;52.120;8.660;2023-02-15T00:37:27;14.63;;;11.13;;
13114;SDS011;6623;52.120;8.660;2023-02-15T00:39:52;14.10;;;10.33;;
13114;SDS011;6623;52.120;8.660;2023-02-15T00:42:21;14.23;;;10.80;;
13114;SDS011;6623;52.120;8.660;2023-02-15T00:44:46;13.80;;;10.60;;
13114;SDS011;6623;52.120;8.660;2023-02-15T00:47:12;13.90;;;10.67;;
13114;SDS011;6623;52.120;8.660;2023-02-15T00:49:37;15.57;;;11.27;;
13114;SDS011;6623;52.120;8.660;2023-02-15T00:52:03;14.30;;;10.97;;
13114;SDS011;6623;52.120;8.660;2023-02-15T00:54:28;15.43;;;11.50;;
13114;SDS011;6623;52.120;8.660;2023-02-15T00:56:54;15.27;;;10.97;;
13114;SDS011;6623;52.120;8.660;2023-02-15T00:59:25;16.70;;;11.10;;
13114;SDS011;6623;52.120;8.660;2023-02-15T01:01:50;15.43;;;11.00;;
13114;SDS011;6623;52.120;8.660;2023-02-15T01:04:16;13.53;;;10.37;;
13114;SDS011;6623;52.120;8.660;2023-02-15T01:06:42;15.60;;;11.13;;
13114;SDS011;6623;52.120;8.660;2023-02-15T01:09:07;16.93;;;11.07;;
13114;SDS011;6623;52.120;8.660;2023-02-15T01:11:33;14.57;;;11.47;;
13114;SDS011;6623;52.120;8.660;2023-02-15T01:13:58;15.37;;;11.00;;
13114;SDS011;6623;52.120;8.660;2023-02-15T01:16:25;16.60;;;11.77;;
13114;SDS011;6623;52.120;8.660;2023-02-15T01:18:53;15.67;;;11.33;;
13114;SDS011;6623;52.120;8.660;2023-02-15T01:21:20;14.47;;;11.10;;
13114;SDS011;6623;52.120;8.660;2023-02-15T01:23:47;15.07;;;10.90;;
13114;SDS011;6623;52.120;8.660;2023-02-15T01:26:16;16.13;;;11.53;;
13114;SDS011;6623;52.120;8.660;2023-02-15T01:28:42;14.37;;;11.27;;
13114;SDS011;6623;52.120;8.660;2023-02-15T01:31:13;14.93;;;11.63;;
13114;SDS011;6623;52.120;8.660;2023-02-15T01:33:40;17.37;;;12.63;;
13114;SDS011;6623;52.120;8.660;2023-02-15T01:36:09;16.70;;;11.50;;
13114;SDS011;6623;52.120;8.660;2023-02-15T01:38:35;15.57;;;11.60;;
13114;SDS011;6623;52.120;8.660;2023-02-15T01:41:01;15.90;;;11.83;;
13114;SDS011;6623;52.120;8.660;2023-02-15T01:44:03;16.03;;;11.20;;
13114;SDS011;6623;52.120;8.660;2023-02-15T01:46:50;16.90;;;12.47;;
13114;SDS011;6623;52.120;8.660;2023-02-15T01:49:20;16.73;;;11.77;;
13114;SDS011;6623;52.120;8.660;2023-02-15T01:51:52;15.60;;;12.10;;
13114;SDS011;6623;52.120;8.660;2023-02-15T01:54:25;18.10;;;12.50;;
13114;SDS011;6623;52.120;8.660;2023-02-15T01:56:58;16.17;;;11.63;;
13114;SDS011;6623;52.120;8.660;2023-02-15T01:59:32;16.50;;;11.77;;
13114;SDS011;6623;52.120;8.660;2023-02-15T02:02:07;17.43;;;11.93;;
13114;SDS011;6623;52.120;8.660;2023-02-15T02:04:59;17.37;;;12.63;;
13114;SDS011;6623;52.120;8.660;2023-02-15T02:07:31;17.43;;;12.43;;
13114;SDS011;6623;52.120;8.660;2023-02-15T02:09:59;19.00;;;12.70;;
13114;SDS011;6623;52.120;8.660;2023-02-15T02:12:25;17.37;;;12.40;;
13114;SDS011;6623;52.120;8.660;2023-02-15T02:14:54;17.50;;;12.90;;
13114;SDS011;6623;52.120;8.660;2023-02-15T02:26:18;18.43;;;12.47;;
13114;SDS011;6623;52.120;8.660;2023-02-15T02:29:36;17.50;;;12.97;;
13114;SDS011;6623;52.120;8.660;2023-02-15T02:38:08;18.43;;;12.80;;
13114;SDS011;6623;52.120;8.660;2023-02-15T02:40:51;16.93;;;12.53;;
13114;SDS011;6623;52.120;8.660;2023-02-15T02:43:38;17.27;;;12.17;;
13114;SDS011;6623;52.120;8.660;2023-02-15T02:46:20;18.43;;;12.67;;
13114;SDS011;6623;52.120;8.660;2023-02-15T02:48:59;17.83;;;13.33;;
13114;SDS011;6623;52.120;8.660;2023-02-15T02:51:26;18.30;;;12.80;;
13114;SDS011;6623;52.120;8.660;2023-02-15T02:53:55;18.43;;;12.67;;
13114;SDS011;6623;52.120;8.660;2023-02-15T02:56:31;19.27;;;13.50;;
13114;SDS011;6623;52.120;8.660;2023-02-15T02:59:07;19.83;;;13.33;;
13114;SDS011;6623;52.120;8.660;2023-02-15T03:01:44;18.47;;;13.33;;
13114;SDS011;6623;52.120;8.660;2023-02-15T03:04:20;17.90;;;12.90;;
13114;SDS011;6623;52.120;8.660;2023-02-15T03:07:00;18.83;;;13.33;;
13114;SDS011;6623;52.120;8.660;2023-02-15T03:09:29;19.97;;;13.53;;
13114;SDS011;6623;52.120;8.660;2023-02-15T03:12:14;18.47;;;13.43;;
13114;SDS011;6623;52.120;8.660;2023-02-15T03:14:56;18.33;;;13.00;;
13114;SDS011;6623;52.120;8.660;2023-02-15T03:17:28;17.60;;;13.43;;
13114;SDS011;6623;52.120;8.660;2023-02-15T03:20:03;18.80;;;13.20;;
13114;SDS011;6623;52.120;8.660;2023-02-15T03:22:44;20.17;;;13.93;;
13114;SDS011;6623;52.120;8.660;2023-02-15T03:27:54;17.20;;;12.67;;
13114;SDS011;6623;52.120;8.660;2023-02-15T03:30:33;19.33;;;12.93;;
13114;SDS011;6623;52.120;8.660;2023-02-15T03:33:00;18.43;;;13.53;;
13114;SDS011;6623;52.120;8.660;2023-02-15T03:35:33;18.03;;;13.07;;
13114;SDS011;6623;52.120;8.660;2023-02-15T03:38:06;17.03;;;13.60;;
13114;SDS011;6623;52.120;8.660;2023-02-15T03:40:41;18.77;;;13.73;;
13114;SDS011;6623;52.120;8.660;2023-02-15T03:46:32;20.63;;;13.40;;
13114;SDS011;6623;52.120;8.660;2023-02-15T03:49:03;20.40;;;13.90;;
13114;SDS011;6623;52.120;8.660;2023-02-15T03:51:36;20.37;;;14.33;;
13114;SDS011;6623;52.120;8.660;2023-02-15T03:54:29;19.30;;;13.87;;
13114;SDS011;6623;52.120;8.660;2023-02-15T03:57:24;19.93;;;13.80;;
13114;SDS011;6623;52.120;8.660;2023-02-15T04:00:22;19.73;;;13.73;;
13114;SDS011;6623;52.120;8.660;2023-02-15T04:03:29;20.47;;;13.70;;
13114;SDS011;6623;52.120;8.660;2023-02-15T04:06:09;19.40;;;13.33;;
13114;SDS011;6623;52.120;8.660;2023-02-15T04:08:34;22.53;;;14.60;;
13114;SDS011;6623;52.120;8.660;2023-02-15T04:11:21;21.13;;;13.60;;
13114;SDS011;6623;52.120;8.660;2023-02-15T04:13:47;17.73;;;12.37;;
13114;SDS011;6623;52.120;8.660;2023-02-15T04:16:15;18.97;;;14.10;;
13114;SDS011;6623;52.120;8.660;2023-02-15T04:18:44;22.37;;;14.23;;
13114;SDS011;6623;52.120;8.660;2023-02-15T04:21:31;20.60;;;13.83;;
13114;SDS011;6623;52.120;8.660;2023-02-15T04:24:15;23.27;;;15.60;;
13114;SDS011;6623;52.120;8.660;2023-02-15T04:27:00;21.87;;;14.50;;
13114;SDS011;6623;52.120;8.660;2023-02-15T04:29:27;23.47;;;15.30;;
13114;SDS011;6623;52.120;8.660;2023-02-15T04:31:54;25.70;;;15.13;;
13114;SDS011;6623;52.120;8.660;2023-02-15T04:34:20;22.57;;;14.97;;
13114;SDS011;6623;52.120;8.660;2023-02-15T04:36:46;23.17;;;15.20;;
13114;SDS011;6623;52.120;8.660;2023-02-15T04:39:12;23.20;;;14.47;;
13114;SDS011;6623;52.120;8.660;2023-02-15T04:41:39;20.07;;;13.63;;
13114;SDS011;6623;52.120;8.660;2023-02-15T04:44:07;19.70;;;13.87;;
13114;SDS011;6623;52.120;8.660;2023-02-15T04:46:39;19.23;;;13.53;;
13114;SDS011;6623;52.120;8.660;2023-02-15T04:49:23;20.97;;;14.63;;
13114;SDS011;6623;52.120;8.660;2023-02-15T04:51:55;22.43;;;14.23;;
13114;SDS011;6623;52.120;8.660;2023-02-15T04:54:26;21.57;;;13.93;;
13114;SDS011;6623;52.120;8.660;2023-02-15T04:56:52;21.37;;;14.03;;
13114;SDS011;6623;52.120;8.660;2023-02-15T04:59:20;18.97;;;14.10;;
13114;SDS011;6623;52.120;8.660;2023-02-15T05:01:51;19.73;;;14.20;;
13114;SDS011;6623;52.120;8.660;2023-02-15T05:04:17;17.37;;;12.83;;
13114;SDS011;6623;52.120;8.660;2023-02-15T05:06:42;19.40;;;13.93;;
13114;SDS011;6623;52.120;8.660;2023-02-15T05:09:08;21.93;;;14.13;;
13114;SDS011;6623;52.120;8.660;2023-02-15T05:11:35;23.17;;;13.93;;
13114;SDS011;6623;52.120;8.660;2023-02-15T05:14:00;22.30;;;14.90;;
13114;SDS011;6623;52.120;8.660;2023-02-15T05:16:26;20.57;;;14.00;;
13114;SDS011;6623;52.120;8.660;2023-02-15T05:18:52;21.93;;;14.40;;
13114;SDS011;6623;52.120;8.660;2023-02-15T05:21:18;19.37;;;13.93;;
13114;SDS011;6623;52.120;8.660;2023-02-15T05:23:44;20.23;;;13.30;;
13114;SDS011;6623;52.120;8.660;2023-02-15T05:26:20;24.03;;;14.77;;
13114;SDS011;6623;52.120;8.660;2023-02-15T05:29:06;18.73;;;13.23;;
13114;SDS011;6623;52.120;8.660;2023-02-15T05:31:41;18.83;;;13.30;;
13114;SDS011;6623;52.120;8.660;2023-02-15T05:34:09;18.43;;;12.83;;
13114;SDS011;6623;52.120;8.660;2023-02-15T05:36:34;20.87;;;14.63;;
13114;SDS011;6623;52.120;8.660;2023-02-15T05:38:59;20.63;;;13.97;;
13114;SDS011;6623;52.120;8.660;2023-02-15T05:41:25;18.27;;;13.40;;
13114;SDS011;6623;52.120;8.660;2023-02-15T05:43:51;17.83;;;13.47;;
13114;SDS011;6623;52.120;8.660;2023-02-15T05:46:16;18.27;;;13.43;;
13114;SDS011;6623;52.120;8.660;2023-02-15T05:48:48;17.43;;;13.03;;
13114;SDS011;6623;52.120;8.660;2023-02-15T05:51:13;17.87;;;12.57;;
13114;SDS011;6623;52.120;8.660;2023-02-15T05:53:43;18.43;;;13.17;;
13114;SDS011;6623;52.120;8.660;2023-02-15T05:56:09;18.30;;;12.70;;
13114;SDS011;6623;52.120;8.660;2023-02-15T05:58:37;18.80;;;12.60;;
13114;SDS011;6623;52.120;8.660;2023-02-15T06:01:19;19.57;;;13.10;;
13114;SDS011;6623;52.120;8.660;2023-02-15T06:03:51;20.33;;;13.30;;
13114;SDS011;6623;52.120;8.660;2023-02-15T06:06:20;26.87;;;13.50;;
13114;SDS011;6623;52.120;8.660;2023-02-15T06:08:46;17.47;;;12.90;;
13114;SDS011;6623;52.120;8.660;2023-02-15T06:11:11;18.80;;;13.40;;
13114;SDS011;6623;52.120;8.660;2023-02-15T06:13:37;19.00;;;13.30;;
13114;SDS011;6623;52.120;8.660;2023-02-15T06:16:02;20.27;;;13.80;;
13114;SDS011;6623;52.120;8.660;2023-02-15T06:18:28;20.07;;;13.27;;
13114;SDS011;6623;52.120;8.660;2023-02-15T06:21:00;20.17;;;13.73;;
13114;SDS011;6623;52.120;8.660;2023-02-15T06:23:25;20.37;;;14.30;;
13114;SDS011;6623;52.120;8.660;2023-02-15T06:26:15;19.20;;;13.70;;
13114;SDS011;6623;52.120;8.660;2023-02-15T06:28:44;18.03;;;12.77;;
13114;SDS011;6623;52.120;8.660;2023-02-15T06:31:10;19.70;;;13.67;;
13114;SDS011;6623;52.120;8.660;2023-02-15T06:33:41;19.23;;;13.40;;
13114;SDS011;6623;52.120;8.660;2023-02-15T06:36:07;18.23;;;12.67;;
13114;SDS011;6623;52.120;8.660;2023-02-15T06:38:39;20.00;;;12.93;;
13114;SDS011;6623;52.120;8.660;2023-02-15T06:41:05;18.83;;;13.33;;
13114;SDS011;6623;52.120;8.660;2023-02-15T06:43:39;18.07;;;13.87;;
13114;SDS011;6623;52.120;8.660;2023-02-15T06:46:08;19.60;;;13.90;;
13114;SDS011;6623;52.120;8.660;2023-02-15T06:48:34;20.70;;;13.37;;
13114;SDS011;6623;52.120;8.660;2023-02-15T06:50:59;20.23;;;14.03;;
13114;SDS011;6623;52.120;8.660;2023-02-15T06:53:28;20.37;;;14.40;;
13114;SDS011;6623;52.120;8.660;2023-02-15T06:55:59;20.83;;;13.97;;
13114;SDS011;6623;52.120;8.660;2023-02-15T06:58:43;19.80;;;13.77;;
13114;SDS011;6623;52.120;8.660;2023-02-15T07:01:13;24.43;;;14.47;;
13114;SDS011;6623;52.120;8.660;2023-02-15T07:03:39;19.20;;;13.57;;
13114;SDS011;6623;52.120;8.660;2023-02-15T07:06:04;20.80;;;14.90;;
13114;SDS011;6623;52.120;8.660;2023-02-15T07:08:33;21.83;;;15.27;;
13114;SDS011;6623;52.120;8.660;2023-02-15T07:11:02;21.33;;;14.83;;
13114;SDS011;6623;52.120;8.660;2023-02-15T07:13:47;19.83;;;14.30;;
13114;SDS011;6623;52.120;8.660;2023-02-15T07:16:13;19.33;;;14.07;;
13114;SDS011;6623;52.120;8.660;2023-02-15T07:18:39;20.03;;;13.43;;
13114;SDS011;6623;52.120;8.660;2023-02-15T07:21:04;20.33;;;13.37;;
13114;SDS011;6623;52.120;8.660;2023-02-15T07:23:33;18.83;;;14.13;;
13114;SDS011;6623;52.120;8.660;2023-02-15T07:26:02;18.13;;;13.03;;
13114;SDS011;6623;52.120;8.660;2023-02-15T07:28:28;19.20;;;13.03;;
13114;SDS011;6623;52.120;8.660;2023-02-15T07:30:54;19.50;;;13.47;;
13114;SDS011;6623;52.120;8.660;2023-02-15T07:33:20;19.30;;;13.70;;
13114;SDS011;6623;52.120;8.660;2023-02-15T07:35:52;17.70;;;13.40;;
13114;SDS011;6623;52.120;8.660;2023-02-15T07:38:23;18.70;;;13.27;;
13114;SDS011;6623;52.120;8.660;2023-02-15T07:40:59;16.93;;;12.60;;
13114;SDS011;6623;52.120;8.660;2023-02-15T07:43:25;18.00;;;12.43;;
13114;SDS011;6623;52.120;8.660;2023-02-15T07:46:00;17.90;;;13.53;;
13114;SDS011;6623;52.120;8.660;2023-02-15T07:48:27;16.70;;;12.70;;
13114;SDS011;6623;52.120;8.660;2023-02-15T07:50:52;17.67;;;13.50;;
13114;SDS011;6623;52.120;8.660;2023-02-15T07:53:18;16.63;;;12.67;;
13114;SDS011;6623;52.120;8.660;2023-02-15T07:55:43;17.33;;;12.87;;
13114;SDS011;6623;52.120;8.660;2023-02-15T07:58:09;17.17;;;12.40;;
13114;SDS011;6623;52.120;8.660;2023-02-15T08:00:34;16.47;;;12.40;;
13114;SDS011;6623;52.120;8.660;2023-02-15T08:03:22;17.53;;;12.27;;
13114;SDS011;6623;52.120;8.660;2023-02-15T08:05:51;16.33;;;12.50;;
13114;SDS011;6623;52.120;8.660;2023-02-15T08:08:20;16.47;;;12.00;;
13114;SDS011;6623;52.120;8.660;2023-02-15T08:13:48;15.90;;;11.63;;
13114;SDS011;6623;52.120;8.660;2023-02-15T08:16:32;15.90;;;11.97;;
13114;SDS011;6623;52.120;8.660;2023-02-15T08:18:58;17.97;;;12.33;;
13114;SDS011;6623;52.120;8.660;2023-02-15T08:21:26;15.87;;;12.27;;
13114;SDS011;6623;52.120;8.660;2023-02-15T08:23:54;17.60;;;13.47;;
13114;SDS011;6623;52.120;8.660;2023-02-15T08:26:21;15.77;;;12.50;;
13114;SDS011;6623;52.120;8.660;2023-02-15T08:28:47;16.83;;;12.47;;
13114;SDS011;6623;52.120;8.660;2023-02-15T08:31:13;18.43;;;12.40;;
13114;SDS011;6623;52.120;8.660;2023-02-15T08:33:40;17.40;;;12.23;;
13114;SDS011;6623;52.120;8.660;2023-02-15T08:36:13;15.83;;;12.37;;
13114;SDS011;6623;52.120;8.660;2023-02-15T08:38:41;16.77;;;11.87;;
13114;SDS011;6623;52.120;8.660;2023-02-15T08:43:40;17.37;;;11.83;;
13114;SDS011;6623;52.120;8.660;2023-02-15T08:46:10;17.30;;;11.70;;
13114;SDS011;6623;52.120;8.660;2023-02-15T08:48:36;15.73;;;11.60;;
13114;SDS011;6623;52.120;8.660;2023-02-15T08:51:09;15.00;;;11.30;;
13114;SDS011;6623;52.120;8.660;2023-02-15T08:53:38;14.93;;;11.37;;
13114;SDS011;6623;52.120;8.660;2023-02-15T08:56:04;14.77;;;10.80;;
13114;SDS011;6623;52.120;8.660;2023-02-15T08:58:31;16.13;;;10.80;;
13114;SDS011;6623;52.120;8.660;2023-02-15T09:00:57;14.77;;;11.00;;
13114;SDS011;6623;52.120;8.660;2023-02-15T09:03:26;16.37;;;11.07;;
13114;SDS011;6623;52.120;8.660;2023-02-15T09:05:56;15.00;;;10.47;;
13114;SDS011;6623;52.120;8.660;2023-02-15T09:08:23;16.53;;;10.83;;
13114;SDS011;6623;52.120;8.660;2023-02-15T09:10:48;13.33;;;9.83;;
13114;SDS011;6623;52.120;8.660;2023-02-15T09:13:14;13.03;;;10.13;;
13114;SDS011;6623;52.120;8.660;2023-02-15T09:15:40;14.33;;;9.83;;
13114;SDS011;6623;52.120;8.660;2023-02-15T09:18:12;14.60;;;10.13;;
13114;SDS011;6623;52.120;8.660;2023-02-15T09:20:42;14.13;;;10.67;;
13114;SDS011;6623;52.120;8.660;2023-02-15T09:23:08;13.53;;;10.10;;
13114;SDS011;6623;52.120;8.660;2023-02-15T09:25:34;14.80;;;10.63;;
13114;SDS011;6623;52.120;8.660;2023-02-15T09:27:59;13.07;;;9.70;;
13114;SDS011;6623;52.120;8.660;2023-02-15T09:30:25;13.90;;;10.40;;
13114;SDS011;6623;52.120;8.660;2023-02-15T09:32:50;14.07;;;9.27;;
13114;SDS011;6623;52.120;8.660;2023-02-15T09:35:16;11.73;;;8.90;;
13114;SDS011;6623;52.120;8.660;2023-02-15T09:37:41;14.50;;;9.90;;
13114;SDS011;6623;52.120;8.660;2023-02-15T09:40:07;16.47;;;10.23;;
13114;SDS011;6623;52.120;8.660;2023-02-15T09:45:26;14.70;;;9.57;;
13114;SDS011;6623;52.120;8.660;2023-02-15T09:50:59;12.80;;;9.93;;
13114;SDS011;6623;52.120;8.660;2023-02-15T09:54:03;13.73;;;10.00;;
13114;SDS011;6623;52.120;8.660;2023-02-15T09:56:48;14.20;;;10.33;;
13114;SDS011;6623;52.120;8.660;2023-02-15T10:07:51;14.53;;;10.43;;
13114;SDS011;6623;52.120;8.660;2023-02-15T10:15:49;12.30;;;8.90;;
13114;SDS011;6623;52.120;8.660;2023-02-15T10:18:48;13.90;;;9.93;;
13114;SDS011;6623;52.120;8.660;2023-02-15T10:21:36;11.63;;;8.97;;
13114;SDS011;6623;52.120;8.660;2023-02-15T10:27:17;12.47;;;8.40;;
13114;SDS011;6623;52.120;8.660;2023-02-15T10:32:39;13.27;;;9.23;;
13114;SDS011;6623;52.120;8.660;2023-02-15T10:35:26;12.80;;;9.77;;
13114;SDS011;6623;52.120;8.660;2023-02-15T10:41:08;12.27;;;9.13;;
13114;SDS011;6623;52.120;8.660;2023-02-15T10:43:58;12.40;;;9.27;;
13114;SDS011;6623;52.120;8.660;2023-02-15T10:46:49;12.10;;;8.77;;
13114;SDS011;6623;52.120;8.660;2023-02-15T10:55:23;12.23;;;8.97;;
13114;SDS011;6623;52.120;8.660;2023-02-15T11:01:15;12.97;;;8.87;;
13114;SDS011;6623;52.120;8.660;2023-02-15T11:06:36;10.70;;;8.80;;
13114;SDS011;6623;52.120;8.660;2023-02-15T11:09:09;11.57;;;8.60;;
13114;SDS011;6623;52.120;8.660;2023-02-15T11:11:42;12.03;;;9.17;;
13114;SDS011;6623;52.120;8.660;2023-02-15T11:14:23;12.67;;;9.93;;
13114;SDS011;6623;52.120;8.660;2023-02-15T11:16:59;12.67;;;8.53;;
13114;SDS011;6623;52.120;8.660;2023-02-15T11:19:35;10.87;;;8.50;;
13114;SDS011;6623;52.120;8.660;2023-02-15T11:22:10;12.57;;;9.40;;
13114;SDS011;6623;52.120;8.660;2023-02-15T11:24:41;11.03;;;8.77;;
13114;SDS011;6623;52.120;8.660;2023-02-15T11:27:22;11.17;;;8.50;;
13114;SDS011;6623;52.120;8.660;2023-02-15T11:29:59;12.83;;;8.90;;
13114;SDS011;6623;52.120;8.660;2023-02-15T11:32:38;13.23;;;9.30;;
13114;SDS011;6623;52.120;8.660;2023-02-15T11:37:43;13.97;;;9.77;;
13114;SDS011;6623;52.120;8.660;2023-02-15T11:43:11;11.30;;;8.50;;
13114;SDS011;6623;52.120;8.660;2023-02-15T11:45:42;11.83;;;9.20;;
13114;SDS011;6623;52.120;8.660;2023-02-15T11:48:11;11.47;;;9.03;;
13114;SDS011;6623;52.120;8.660;2023-02-15T11:50:41;12.47;;;9.27;;
13114;SDS011;6623;52.120;8.660;2023-02-15T11:53:26;14.50;;;9.73;;
13114;SDS011;6623;52.120;8.660;2023-02-15T11:55:56;11.40;;;8.67;;
13114;SDS011;6623;52.120;8.660;2023-02-15T12:01:08;9.70;;;7.53;;
13114;SDS011;6623;52.120;8.660;2023-02-15T12:03:50;11.60;;;8.43;;
13114;SDS011;6623;52.120;8.660;2023-02-15T12:06:21;12.80;;;8.83;;
13114;SDS011;6623;52.120;8.660;2023-02-15T12:08:54;11.37;;;8.27;;
13114;SDS011;6623;52.120;8.660;2023-02-15T12:11:35;12.73;;;8.97;;
13114;SDS011;6623;52.120;8.660;2023-02-15T12:14:03;12.03;;;8.67;;
13114;SDS011;6623;52.120;8.660;2023-02-15T12:16:41;11.60;;;8.27;;
13114;SDS011;6623;52.120;8.660;2023-02-15T12:19:36;10.77;;;8.43;;
13114;SDS011;6623;52.120;8.660;2023-02-15T12:22:17;11.13;;;8.60;;
13114;SDS011;6623;52.120;8.660;2023-02-15T12:24:52;11.87;;;8.43;;
13114;SDS011;6623;52.120;8.660;2023-02-15T12:27:22;14.60;;;9.17;;
13114;SDS011;6623;52.120;8.660;2023-02-15T12:30:07;11.87;;;8.73;;
13114;SDS011;6623;52.120;8.660;2023-02-15T12:33:13;13.20;;;9.03;;
13114;SDS011;6623;52.120;8.660;2023-02-15T12:35:41;10.13;;;8.50;;
13114;SDS011;6623;52.120;8.660;2023-02-15T12:40:36;12.27;;;8.80;;
13114;SDS011;6623;52.120;8.660;2023-02-15T12:43:05;11.20;;;8.93;;
13114;SDS011;6623;52.120;8.660;2023-02-15T12:45:53;10.90;;;8.40;;
13114;SDS011;6623;52.120;8.660;2023-02-15T12:48:37;12.73;;;9.07;;
13114;SDS011;6623;52.120;8.660;2023-02-15T12:51:07;10.47;;;8.40;;
13114;SDS011;6623;52.120;8.660;2023-02-15T12:53:34;9.90;;;8.20;;
13114;SDS011;6623;52.120;8.660;2023-02-15T12:56:02;13.47;;;8.77;;
13114;SDS011;6623;52.120;8.660;2023-02-15T12:58:30;12.00;;;8.40;;
13114;SDS011;6623;52.120;8.660;2023-02-15T13:03:57;11.20;;;8.77;;
13114;SDS011;6623;52.120;8.660;2023-02-15T13:06:28;11.70;;;8.70;;
13114;SDS011;6623;52.120;8.660;2023-02-15T13:09:08;12.57;;;8.77;;
13114;SDS011;6623;52.120;8.660;2023-02-15T13:12:08;13.13;;;9.70;;
13114;SDS011;6623;52.120;8.660;2023-02-15T13:15:22;10.43;;;8.20;;
13114;SDS011;6623;52.120;8.660;2023-02-15T13:18:00;10.53;;;8.60;;
13114;SDS011;6623;52.120;8.660;2023-02-15T13:20:27;12.03;;;8.40;;
13114;SDS011;6623;52.120;8.660;2023-02-15T13:23:01;11.77;;;8.50;;
13114;SDS011;6623;52.120;8.660;2023-02-15T13:25:52;11.70;;;8.63;;
13114;SDS011;6623;52.120;8.660;2023-02-15T13:28:20;10.03;;;8.13;;
13114;SDS011;6623;52.120;8.660;2023-02-15T13:30:49;13.00;;;8.73;;
13114;SDS011;6623;52.120;8.660;2023-02-15T13:33:31;12.77;;;9.37;;
13114;SDS011;6623;52.120;8.660;2023-02-15T13:44:32;11.17;;;8.07;;
13114;SDS011;6623;52.120;8.660;2023-02-15T13:50:48;15.23;;;8.80;;
13114;SDS011;6623;52.120;8.660;2023-02-15T13:59:41;12.30;;;8.50;;
13114;SDS011;6623;52.120;8.660;2023-02-15T14:08:11;12.23;;;8.63;;
13114;SDS011;6623;52.120;8.660;2023-02-15T14:10:56;12.40;;;9.07;;
13114;SDS011;6623;52.120;8.660;2023-02-15T14:25:18;17.97;;;9.13;;
13114;SDS011;6623;52.120;8.660;2023-02-15T14:30:38;11.47;;;7.90;;
13114;SDS011;6623;52.120;8.660;2023-02-15T14:35:46;10.73;;;8.73;;
13114;SDS011;6623;52.120;8.660;2023-02-15T14:38:31;10.43;;;7.83;;
13114;SDS011;6623;52.120;8.660;2023-02-15T14:41:21;13.73;;;8.50;;
13114;SDS011;6623;52.120;8.660;2023-02-15T14:46:57;11.63;;;7.83;;
13114;SDS011;6623;52.120;8.660;2023-02-15T14:49:35;10.37;;;7.93;;
13114;SDS011;6623;52.120;8.660;2023-02-15T14:52:04;13.93;;;8.37;;
13114;SDS011;6623;52.120;8.660;2023-02-15T15:05:24;11.53;;;8.77;;
13114;SDS011;6623;52.120;8.660;2023-02-15T15:08:19;11.03;;;8.77;;
13114;SDS011;6623;52.120;8.660;2023-02-15T15:10:50;12.30;;;8.30;;
13114;SDS011;6623;52.120;8.660;2023-02-15T15:15:56;12.87;;;8.80;;
13114;SDS011;6623;52.120;8.660;2023-02-15T15:18:50;13.03;;;8.60;;
13114;SDS011;6623;52.120;8.660;2023-02-15T15:30:48;11.33;;;8.83;;
13114;SDS011;6623;52.120;8.660;2023-02-15T15:35:36;11.20;;;8.70;;
13114;SDS011;6623;52.120;8.660;2023-02-15T15:50:11;10.87;;;8.20;;
13114;SDS011;6623;52.120;8.660;2023-02-15T15:52:52;9.90;;;7.70;;
13114;SDS011;6623;52.120;8.660;2023-02-15T15:55:26;9.97;;;7.93;;
13114;SDS011;6623;52.120;8.660;2023-02-15T16:00:47;11.67;;;8.00;;
13114;SDS011;6623;52.120;8.660;2023-02-15T16:03:25;10.63;;;7.57;;
13114;SDS011;6623;52.120;8.660;2023-02-15T16:06:11;11.27;;;8.27;;
13114;SDS011;6623;52.120;8.660;2023-02-15T16:08:51;12.00;;;7.93;;
13114;SDS011;6623;52.120;8.660;2023-02-15T16:11:29;9.17;;;7.60;;
13114;SDS011;6623;52.120;8.660;2023-02-15T16:13:56;9.57;;;8.17;;
13114;SDS011;6623;52.120;8.660;2023-02-15T16:16:22;12.07;;;8.13;;
13114;SDS011;6623;52.120;8.660;2023-02-15T16:18:50;9.73;;;8.07;;
13114;SDS011;6623;52.120;8.660;2023-02-15T16:21:18;10.50;;;8.30;;
13114;SDS011;6623;52.120;8.660;2023-02-15T16:24:06;9.60;;;7.67;;
13114;SDS011;6623;52.120;8.660;2023-02-15T16:29:44;9.73;;;8.10;;
13114;SDS011;6623;52.120;8.660;2023-02-15T16:32:20;13.37;;;8.33;;
13114;SDS011;6623;52.120;8.660;2023-02-15T16:34:59;10.57;;;8.17;;
13114;SDS011;6623;52.120;8.660;2023-02-15T16:37:27;11.50;;;8.93;;
13114;SDS011;6623;52.120;8.660;2023-02-15T16:39:57;10.67;;;8.77;;
13114;SDS011;6623;52.120;8.660;2023-02-15T16:42:23;10.33;;;8.50;;
13114;SDS011;6623;52.120;8.660;2023-02-15T16:44:58;12.17;;;9.10;;
13114;SDS011;6623;52.120;8.660;2023-02-15T16:47:31;9.70;;;8.53;;
13114;SDS011;6623;52.120;8.660;2023-02-15T16:50:02;11.00;;;8.67;;
13114;SDS011;6623;52.120;8.660;2023-02-15T16:52:29;11.17;;;8.53;;
13114;SDS011;6623;52.120;8.660;2023-02-15T16:54:56;10.83;;;8.97;;
13114;SDS011;6623;52.120;8.660;2023-02-15T16:57:24;12.47;;;8.57;;
13114;SDS011;6623;52.120;8.660;2023-02-15T16:59:54;10.73;;;8.57;;
13114;SDS011;6623;52.120;8.660;2023-02-15T17:02:26;10.93;;;9.00;;
13114;SDS011;6623;52.120;8.660;2023-02-15T17:07:38;11.57;;;8.70;;
13114;SDS011;6623;52.120;8.660;2023-02-15T17:13:03;11.30;;;9.63;;
13114;SDS011;6623;52.120;8.660;2023-02-15T17:15:41;13.57;;;9.80;;
13114;SDS011;6623;52.120;8.660;2023-02-15T17:18:16;11.83;;;9.13;;
13114;SDS011;6623;52.120;8.660;2023-02-15T17:20:54;11.70;;;9.83;;
13114;SDS011;6623;52.120;8.660;2023-02-15T17:23:25;12.33;;;8.77;;
13114;SDS011;6623;52.120;8.660;2023-02-15T17:26:11;10.27;;;8.60;;
13114;SDS011;6623;52.120;8.660;2023-02-15T17:31:27;11.33;;;9.43;;
13114;SDS011;6623;52.120;8.660;2023-02-15T17:34:00;12.53;;;8.97;;
13114;SDS011;6623;52.120;8.660;2023-02-15T17:36:27;10.93;;;9.17;;
13114;SDS011;6623;52.120;8.660;2023-02-15T17:41:23;12.13;;;9.07;;
13114;SDS011;6623;52.120;8.660;2023-02-15T17:43:48;12.20;;;9.43;;
13114;SDS011;6623;52.120;8.660;2023-02-15T17:46:14;12.63;;;9.53;;
13114;SDS011;6623;52.120;8.660;2023-02-15T17:48:43;12.90;;;10.17;;
13114;SDS011;6623;52.120;8.660;2023-02-15T17:51:12;14.03;;;11.03;;
13114;SDS011;6623;52.120;8.660;2023-02-15T17:53:42;13.53;;;10.83;;
13114;SDS011;6623;52.120;8.660;2023-02-15T17:56:34;11.00;;;9.33;;
13114;SDS011;6623;52.120;8.660;2023-02-15T17:59:02;16.07;;;10.70;;
13114;SDS011;6623;52.120;8.660;2023-02-15T18:01:31;12.93;;;9.87;;
13114;SDS011;6623;52.120;8.660;2023-02-15T18:04:19;11.70;;;9.17;;
13114;SDS011;6623;52.120;8.660;2023-02-15T18:07:04;13.83;;;10.13;;
13114;SDS011;6623;52.120;8.660;2023-02-15T18:09:48;18.47;;;11.27;;
13114;SDS011;6623;52.120;8.660;2023-02-15T18:12:35;14.50;;;10.60;;